sensor_id;sensor_type;location;lat;lon;timestamp;P1;durP1;ratioP1;P2;durP2;ratioP2
17228;SDS011;8731;50.364;8.958;2023-12-20T00:01:26;9.67;;;8.33;;
17228;SDS011;8731;50.364;8.958;2023-12-20T00:05:50;10.73;;;8.77;;
17228;SDS011;8731;50.364;8.958;2023-12-20T00:10:13;11.40;;;9.03;;
17228;SDS011;8731;50.364;8.958;2023-12-20T00:14:36;10.93;;;8.63;;
17228;SDS011;8731;50.364;8.958;2023-12-20T00:18:59;11.10;;;8.17;;
17228;SDS011;8731;50.364;8.958;2023-12-20T00:23:26;9.70;;;8.70;;
17228;SDS011;8731;50.364;8.958;2023-12-20T00:27:48;11.57;;;8.67;;
17228;SDS011;8731;50.364;8.958;2023-12-20T00:32:10;9.53;;;8.53;;
17228;SDS011;8731;50.364;8.958;2023-12-20T00:36:33;10.97;;;8.10;;
17228;SDS011;8731;50.364;8.958;2023-12-20T00:40:57;9.40;;;8.10;;
17228;SDS011;8731;50.364;8.958;2023-12-20T00:45:19;10.10;;;8.37;;
17228;SDS011;8731;50.364;8.958;2023-12-20T00:49:42;9.87;;;7.90;;
17228;SDS011;8731;50.364;8.958;2023-12-20T00:54:04;7.93;;;7.10;;
17228;SDS011;8731;50.364;8.958;2023-12-20T00:58:29;10.93;;;8.47;;
17228;SDS011;8731;50.364;8.958;2023-12-20T01:02:52;8.87;;;7.20;;
17228;SDS011;8731;50.364;8.958;2023-12-20T01:07:14;8.80;;;7.93;;
17228;SDS011;8731;50.364;8.958;2023-12-20T01:11:39;9.80;;;8.80;;
17228;SDS011;8731;50.364;8.958;2023-12-20T01:16:04;9.87;;;8.40;;
17228;SDS011;8731;50.364;8.958;2023-12-20T01:20:27;9.10;;;7.83;;
17228;SDS011;8731;50.364;8.958;2023-12-20T01:24:50;9.70;;;8.13;;
17228;SDS011;8731;50.364;8.958;2023-12-20T01:29:12;8.73;;;7.87;;
17228;SDS011;8731;50.364;8.958;2023-12-20T01:33:37;10.70;;;7.90;;
17228;SDS011;8731;50.364;8.958;2023-12-20T01:38:00;9.37;;;7.27;;
17228;SDS011;8731;50.364;8.958;2023-12-20T01:42:22;9.60;;;8.60;;
17228;SDS011;8731;50.364;8.958;2023-12-20T01:46:44;10.17;;;8.03;;
17228;SDS011;8731;50.364;8.958;2023-12-20T01:51:11;9.47;;;8.43;;
17228;SDS011;8731;50.364;8.958;2023-12-20T01:55:34;9.30;;;8.20;;
17228;SDS011;8731;50.364;8.958;2023-12-20T02:00:00;8.47;;;7.57;;
17228;SDS011;8731;50.364;8.958;2023-12-20T02:04:25;11.47;;;7.97;;
17228;SDS011;8731;50.364;8.958;2023-12-20T02:08:50;8.10;;;7.07;;
17228;SDS011;8731;50.364;8.958;2023-12-20T02:13:12;9.40;;;7.23;;
17228;SDS011;8731;50.364;8.958;2023-12-20T02:17:35;8.37;;;7.43;;
17228;SDS011;8731;50.364;8.958;2023-12-20T02:22:08;9.33;;;7.40;;
17228;SDS011;8731;50.364;8.958;2023-12-20T02:26:32;9.43;;;7.63;;
17228;SDS011;8731;50.364;8.958;2023-12-20T02:30:55;8.43;;;7.50;;
17228;SDS011;8731;50.364;8.958;2023-12-20T02:35:18;8.80;;;7.90;;
17228;SDS011;8731;50.364;8.958;2023-12-20T02:39:41;9.03;;;7.63;;
17228;SDS011;8731;50.364;8.958;2023-12-20T02:44:04;7.93;;;7.03;;
17228;SDS011;8731;50.364;8.958;2023-12-20T02:48:26;9.17;;;8.27;;
17228;SDS011;8731;50.364;8.958;2023-12-20T02:52:49;8.53;;;7.63;;
17228;SDS011;8731;50.364;8.958;2023-12-20T02:57:13;10.30;;;9.07;;
17228;SDS011;8731;50.364;8.958;2023-12-20T03:01:37;9.90;;;8.27;;
17228;SDS011;8731;50.364;8.958;2023-12-20T03:06:04;9.37;;;7.70;;
17228;SDS011;8731;50.364;8.958;2023-12-20T03:10:27;9.77;;;7.70;;
17228;SDS011;8731;50.364;8.958;2023-12-20T03:14:51;9.17;;;7.50;;
17228;SDS011;8731;50.364;8.958;2023-12-20T03:19:14;7.70;;;6.90;;
17228;SDS011;8731;50.364;8.958;2023-12-20T03:23:37;8.07;;;7.27;;
17228;SDS011;8731;50.364;8.958;2023-12-20T03:28:00;7.10;;;6.40;;
17228;SDS011;8731;50.364;8.958;2023-12-20T03:32:24;8.60;;;7.20;;
17228;SDS011;8731;50.364;8.958;2023-12-20T03:36:48;11.23;;;7.43;;
17228;SDS011;8731;50.364;8.958;2023-12-20T03:41:11;8.40;;;7.50;;
17228;SDS011;8731;50.364;8.958;2023-12-20T03:45:34;9.13;;;8.03;;
17228;SDS011;8731;50.364;8.958;2023-12-20T03:49:57;9.10;;;7.77;;
17228;SDS011;8731;50.364;8.958;2023-12-20T03:54:20;8.40;;;7.40;;
17228;SDS011;8731;50.364;8.958;2023-12-20T03:58:43;7.87;;;7.07;;
17228;SDS011;8731;50.364;8.958;2023-12-20T04:03:06;8.20;;;7.40;;
17228;SDS011;8731;50.364;8.958;2023-12-20T04:07:36;7.70;;;6.97;;
17228;SDS011;8731;50.364;8.958;2023-12-20T04:11:58;8.43;;;7.63;;
17228;SDS011;8731;50.364;8.958;2023-12-20T04:16:21;8.20;;;7.30;;
17228;SDS011;8731;50.364;8.958;2023-12-20T04:20:43;9.00;;;8.10;;
17228;SDS011;8731;50.364;8.958;2023-12-20T04:25:09;10.53;;;7.87;;
17228;SDS011;8731;50.364;8.958;2023-12-20T04:29:31;8.63;;;7.67;;
17228;SDS011;8731;50.364;8.958;2023-12-20T04:33:54;14.97;;;13.43;;
17228;SDS011;8731;50.364;8.958;2023-12-20T04:38:16;16.00;;;14.30;;
17228;SDS011;8731;50.364;8.958;2023-12-20T04:42:40;8.80;;;7.33;;
17228;SDS011;8731;50.364;8.958;2023-12-20T04:47:02;9.37;;;8.47;;
17228;SDS011;8731;50.364;8.958;2023-12-20T04:51:25;8.00;;;6.97;;
17228;SDS011;8731;50.364;8.958;2023-12-20T04:55:48;8.40;;;6.00;;
17228;SDS011;8731;50.364;8.958;2023-12-20T05:00:14;7.37;;;5.77;;
17228;SDS011;8731;50.364;8.958;2023-12-20T05:04:37;7.10;;;6.40;;
17228;SDS011;8731;50.364;8.958;2023-12-20T05:09:01;9.50;;;6.47;;
17228;SDS011;8731;50.364;8.958;2023-12-20T05:13:24;6.63;;;5.80;;
17228;SDS011;8731;50.364;8.958;2023-12-20T05:17:49;9.27;;;6.30;;
17228;SDS011;8731;50.364;8.958;2023-12-20T05:22:12;8.47;;;7.23;;
17228;SDS011;8731;50.364;8.958;2023-12-20T05:26:34;9.00;;;6.83;;
17228;SDS011;8731;50.364;8.958;2023-12-20T05:30:57;7.80;;;7.00;;
17228;SDS011;8731;50.364;8.958;2023-12-20T05:35:21;9.47;;;7.17;;
17228;SDS011;8731;50.364;8.958;2023-12-20T05:39:45;8.93;;;6.77;;
17228;SDS011;8731;50.364;8.958;2023-12-20T05:44:09;6.87;;;6.03;;
17228;SDS011;8731;50.364;8.958;2023-12-20T05:48:32;9.57;;;6.03;;
17228;SDS011;8731;50.364;8.958;2023-12-20T05:52:59;5.87;;;4.17;;
17228;SDS011;8731;50.364;8.958;2023-12-20T05:57:22;8.30;;;4.90;;
17228;SDS011;8731;50.364;8.958;2023-12-20T06:01:45;6.30;;;3.90;;
17228;SDS011;8731;50.364;8.958;2023-12-20T06:06:08;10.30;;;5.73;;
17228;SDS011;8731;50.364;8.958;2023-12-20T06:10:34;9.20;;;5.63;;
17228;SDS011;8731;50.364;8.958;2023-12-20T06:14:56;12.50;;;6.20;;
17228;SDS011;8731;50.364;8.958;2023-12-20T06:19:21;9.13;;;4.03;;
17228;SDS011;8731;50.364;8.958;2023-12-20T06:23:44;9.43;;;4.03;;
17228;SDS011;8731;50.364;8.958;2023-12-20T06:28:09;17.00;;;7.10;;
17228;SDS011;8731;50.364;8.958;2023-12-20T06:32:45;11.40;;;3.87;;
17228;SDS011;8731;50.364;8.958;2023-12-20T06:37:07;12.37;;;6.10;;
17228;SDS011;8731;50.364;8.958;2023-12-20T06:41:30;10.37;;;5.83;;
17228;SDS011;8731;50.364;8.958;2023-12-20T06:45:55;11.97;;;5.87;;
17228;SDS011;8731;50.364;8.958;2023-12-20T06:50:19;9.40;;;4.80;;
17228;SDS011;8731;50.364;8.958;2023-12-20T06:54:43;6.93;;;3.17;;
17228;SDS011;8731;50.364;8.958;2023-12-20T06:59:07;8.43;;;2.27;;
17228;SDS011;8731;50.364;8.958;2023-12-20T07:03:35;13.43;;;3.03;;
17228;SDS011;8731;50.364;8.958;2023-12-20T07:07:57;11.03;;;4.20;;
17228;SDS011;8731;50.364;8.958;2023-12-20T07:12:24;9.80;;;3.13;;
17228;SDS011;8731;50.364;8.958;2023-12-20T07:16:47;11.23;;;4.63;;
17228;SDS011;8731;50.364;8.958;2023-12-20T07:21:11;9.90;;;3.70;;
17228;SDS011;8731;50.364;8.958;2023-12-20T07:25:33;10.43;;;3.70;;
17228;SDS011;8731;50.364;8.958;2023-12-20T07:29:58;12.60;;;4.30;;
17228;SDS011;8731;50.364;8.958;2023-12-20T07:34:21;11.30;;;3.60;;
17228;SDS011;8731;50.364;8.958;2023-12-20T07:38:45;10.37;;;3.83;;
17228;SDS011;8731;50.364;8.958;2023-12-20T07:43:08;11.27;;;3.30;;
17228;SDS011;8731;50.364;8.958;2023-12-20T07:47:33;7.80;;;3.50;;
17228;SDS011;8731;50.364;8.958;2023-12-20T07:51:55;11.37;;;3.87;;
17228;SDS011;8731;50.364;8.958;2023-12-20T07:56:20;11.87;;;3.93;;
17228;SDS011;8731;50.364;8.958;2023-12-20T08:00:44;9.70;;;3.07;;
17228;SDS011;8731;50.364;8.958;2023-12-20T08:05:07;10.40;;;3.20;;
17228;SDS011;8731;50.364;8.958;2023-12-20T08:09:30;14.47;;;3.73;;
17228;SDS011;8731;50.364;8.958;2023-12-20T08:13:55;12.17;;;3.60;;
17228;SDS011;8731;50.364;8.958;2023-12-20T08:18:18;14.50;;;4.63;;
17228;SDS011;8731;50.364;8.958;2023-12-20T08:22:41;19.63;;;8.20;;
17228;SDS011;8731;50.364;8.958;2023-12-20T08:27:03;15.13;;;6.00;;
17228;SDS011;8731;50.364;8.958;2023-12-20T08:31:28;18.37;;;7.03;;
17228;SDS011;8731;50.364;8.958;2023-12-20T08:35:50;14.17;;;6.07;;
17228;SDS011;8731;50.364;8.958;2023-12-20T08:40:13;12.57;;;5.33;;
17228;SDS011;8731;50.364;8.958;2023-12-20T08:44:36;15.90;;;4.83;;
17228;SDS011;8731;50.364;8.958;2023-12-20T08:49:01;15.77;;;6.40;;
17228;SDS011;8731;50.364;8.958;2023-12-20T08:53:23;15.50;;;5.87;;
17228;SDS011;8731;50.364;8.958;2023-12-20T08:57:47;16.90;;;7.83;;
17228;SDS011;8731;50.364;8.958;2023-12-20T09:02:10;14.27;;;5.20;;
17228;SDS011;8731;50.364;8.958;2023-12-20T09:06:36;11.13;;;4.20;;
17228;SDS011;8731;50.364;8.958;2023-12-20T09:10:58;8.03;;;3.10;;
17228;SDS011;8731;50.364;8.958;2023-12-20T09:15:20;10.53;;;3.43;;
17228;SDS011;8731;50.364;8.958;2023-12-20T09:19:44;10.70;;;3.17;;
17228;SDS011;8731;50.364;8.958;2023-12-20T09:24:09;13.37;;;2.50;;
17228;SDS011;8731;50.364;8.958;2023-12-20T09:28:33;8.57;;;2.50;;
17228;SDS011;8731;50.364;8.958;2023-12-20T09:32:57;7.43;;;3.03;;
17228;SDS011;8731;50.364;8.958;2023-12-20T09:37:19;15.93;;;4.33;;
17228;SDS011;8731;50.364;8.958;2023-12-20T09:41:44;8.87;;;3.90;;
17228;SDS011;8731;50.364;8.958;2023-12-20T09:46:21;9.67;;;5.00;;
17228;SDS011;8731;50.364;8.958;2023-12-20T09:50:53;10.07;;;4.23;;
17228;SDS011;8731;50.364;8.958;2023-12-20T09:55:17;7.83;;;2.70;;
17228;SDS011;8731;50.364;8.958;2023-12-20T09:59:42;8.93;;;2.53;;
17228;SDS011;8731;50.364;8.958;2023-12-20T10:04:05;11.17;;;4.20;;
17228;SDS011;8731;50.364;8.958;2023-12-20T10:08:29;6.73;;;2.17;;
17228;SDS011;8731;50.364;8.958;2023-12-20T10:13:02;8.30;;;2.53;;
17228;SDS011;8731;50.364;8.958;2023-12-20T10:17:29;7.77;;;2.87;;
17228;SDS011;8731;50.364;8.958;2023-12-20T10:21:51;9.53;;;2.20;;
17228;SDS011;8731;50.364;8.958;2023-12-20T10:26:18;9.77;;;3.10;;
17228;SDS011;8731;50.364;8.958;2023-12-20T10:30:44;11.47;;;3.57;;
17228;SDS011;8731;50.364;8.958;2023-12-20T10:35:09;9.67;;;2.87;;
17228;SDS011;8731;50.364;8.958;2023-12-20T10:39:31;9.77;;;2.60;;
17228;SDS011;8731;50.364;8.958;2023-12-20T10:43:55;10.90;;;3.50;;
17228;SDS011;8731;50.364;8.958;2023-12-20T10:48:21;9.03;;;4.00;;
17228;SDS011;8731;50.364;8.958;2023-12-20T10:52:50;11.63;;;4.63;;
17228;SDS011;8731;50.364;8.958;2023-12-20T10:57:15;9.03;;;4.17;;
17228;SDS011;8731;50.364;8.958;2023-12-20T11:01:40;9.97;;;4.80;;
17228;SDS011;8731;50.364;8.958;2023-12-20T11:06:09;11.43;;;4.67;;
17228;SDS011;8731;50.364;8.958;2023-12-20T11:10:51;8.43;;;4.17;;
17228;SDS011;8731;50.364;8.958;2023-12-20T11:15:24;10.07;;;4.07;;
17228;SDS011;8731;50.364;8.958;2023-12-20T11:24:38;9.77;;;3.80;;
17228;SDS011;8731;50.364;8.958;2023-12-20T11:33:56;6.20;;;3.50;;
17228;SDS011;8731;50.364;8.958;2023-12-20T11:38:37;31.17;;;13.43;;
17228;SDS011;8731;50.364;8.958;2023-12-20T11:42:59;8.07;;;3.20;;
17228;SDS011;8731;50.364;8.958;2023-12-20T11:47:24;14.00;;;3.33;;
17228;SDS011;8731;50.364;8.958;2023-12-20T11:51:47;10.33;;;4.20;;
17228;SDS011;8731;50.364;8.958;2023-12-20T11:56:10;8.93;;;3.47;;
17228;SDS011;8731;50.364;8.958;2023-12-20T12:00:33;8.97;;;4.07;;
17228;SDS011;8731;50.364;8.958;2023-12-20T12:04:59;8.67;;;2.80;;
17228;SDS011;8731;50.364;8.958;2023-12-20T12:09:27;9.80;;;2.50;;
17228;SDS011;8731;50.364;8.958;2023-12-20T12:13:49;7.13;;;2.37;;
17228;SDS011;8731;50.364;8.958;2023-12-20T12:18:15;9.50;;;2.50;;
17228;SDS011;8731;50.364;8.958;2023-12-20T12:22:39;9.67;;;2.33;;
17228;SDS011;8731;50.364;8.958;2023-12-20T12:27:02;4.83;;;2.30;;
17228;SDS011;8731;50.364;8.958;2023-12-20T12:31:26;8.27;;;2.27;;
17228;SDS011;8731;50.364;8.958;2023-12-20T12:35:50;5.67;;;2.43;;
17228;SDS011;8731;50.364;8.958;2023-12-20T12:40:14;7.07;;;2.23;;
17228;SDS011;8731;50.364;8.958;2023-12-20T12:44:40;6.93;;;2.53;;
17228;SDS011;8731;50.364;8.958;2023-12-20T12:49:03;8.37;;;2.90;;
17228;SDS011;8731;50.364;8.958;2023-12-20T12:53:26;7.63;;;2.07;;
17228;SDS011;8731;50.364;8.958;2023-12-20T12:57:50;6.80;;;2.53;;
17228;SDS011;8731;50.364;8.958;2023-12-20T13:02:12;5.60;;;2.40;;
17228;SDS011;8731;50.364;8.958;2023-12-20T13:06:35;6.03;;;2.07;;
17228;SDS011;8731;50.364;8.958;2023-12-20T13:10:58;11.63;;;2.53;;
17228;SDS011;8731;50.364;8.958;2023-12-20T13:15:25;6.10;;;2.20;;
17228;SDS011;8731;50.364;8.958;2023-12-20T13:19:48;13.00;;;3.70;;
17228;SDS011;8731;50.364;8.958;2023-12-20T13:24:10;7.93;;;3.07;;
17228;SDS011;8731;50.364;8.958;2023-12-20T13:28:33;7.73;;;2.93;;
17228;SDS011;8731;50.364;8.958;2023-12-20T13:32:58;10.90;;;3.20;;
17228;SDS011;8731;50.364;8.958;2023-12-20T13:37:20;6.40;;;2.10;;
17228;SDS011;8731;50.364;8.958;2023-12-20T13:41:44;6.17;;;2.30;;
17228;SDS011;8731;50.364;8.958;2023-12-20T13:46:06;16.47;;;7.33;;
17228;SDS011;8731;50.364;8.958;2023-12-20T13:50:30;9.43;;;2.80;;
17228;SDS011;8731;50.364;8.958;2023-12-20T13:54:53;10.17;;;2.73;;
17228;SDS011;8731;50.364;8.958;2023-12-20T13:59:16;3.97;;;1.50;;
17228;SDS011;8731;50.364;8.958;2023-12-20T14:03:39;9.70;;;2.97;;
17228;SDS011;8731;50.364;8.958;2023-12-20T14:08:05;5.63;;;2.30;;
17228;SDS011;8731;50.364;8.958;2023-12-20T14:12:29;7.40;;;2.10;;
17228;SDS011;8731;50.364;8.958;2023-12-20T14:16:55;5.63;;;2.50;;
17228;SDS011;8731;50.364;8.958;2023-12-20T14:21:18;6.40;;;2.00;;
17228;SDS011;8731;50.364;8.958;2023-12-20T14:25:44;8.23;;;2.40;;
17228;SDS011;8731;50.364;8.958;2023-12-20T14:30:10;6.40;;;2.20;;
17228;SDS011;8731;50.364;8.958;2023-12-20T14:34:34;5.20;;;1.80;;
17228;SDS011;8731;50.364;8.958;2023-12-20T14:38:56;4.77;;;2.00;;
17228;SDS011;8731;50.364;8.958;2023-12-20T14:43:20;4.43;;;1.90;;
17228;SDS011;8731;50.364;8.958;2023-12-20T14:47:43;5.03;;;2.10;;
17228;SDS011;8731;50.364;8.958;2023-12-20T14:52:08;4.80;;;2.10;;
17228;SDS011;8731;50.364;8.958;2023-12-20T14:56:31;7.00;;;1.90;;
17228;SDS011;8731;50.364;8.958;2023-12-20T15:00:56;5.23;;;1.83;;
17228;SDS011;8731;50.364;8.958;2023-12-20T15:05:19;5.80;;;2.03;;
17228;SDS011;8731;50.364;8.958;2023-12-20T15:09:42;7.13;;;2.00;;
17228;SDS011;8731;50.364;8.958;2023-12-20T15:14:06;4.60;;;2.03;;
17228;SDS011;8731;50.364;8.958;2023-12-20T15:18:32;6.43;;;2.10;;
17228;SDS011;8731;50.364;8.958;2023-12-20T15:22:54;5.83;;;2.50;;
17228;SDS011;8731;50.364;8.958;2023-12-20T15:27:20;8.83;;;2.97;;
17228;SDS011;8731;50.364;8.958;2023-12-20T15:31:44;7.77;;;2.27;;
17228;SDS011;8731;50.364;8.958;2023-12-20T15:36:10;8.90;;;2.50;;
17228;SDS011;8731;50.364;8.958;2023-12-20T15:40:36;7.67;;;3.40;;
17228;SDS011;8731;50.364;8.958;2023-12-20T15:44:59;5.00;;;2.80;;
17228;SDS011;8731;50.364;8.958;2023-12-20T15:49:21;4.67;;;2.80;;
17228;SDS011;8731;50.364;8.958;2023-12-20T15:53:45;6.47;;;2.20;;
17228;SDS011;8731;50.364;8.958;2023-12-20T15:58:08;7.23;;;2.03;;
17228;SDS011;8731;50.364;8.958;2023-12-20T16:02:30;5.10;;;2.80;;
17228;SDS011;8731;50.364;8.958;2023-12-20T16:06:53;8.07;;;2.43;;
17228;SDS011;8731;50.364;8.958;2023-12-20T16:11:17;6.57;;;2.37;;
17228;SDS011;8731;50.364;8.958;2023-12-20T16:15:40;6.97;;;2.93;;
17228;SDS011;8731;50.364;8.958;2023-12-20T16:20:06;8.37;;;3.50;;
17228;SDS011;8731;50.364;8.958;2023-12-20T16:24:30;5.83;;;2.70;;
17228;SDS011;8731;50.364;8.958;2023-12-20T16:28:57;8.97;;;4.53;;
17228;SDS011;8731;50.364;8.958;2023-12-20T16:33:19;10.20;;;5.50;;
17228;SDS011;8731;50.364;8.958;2023-12-20T16:37:41;8.73;;;4.10;;
17228;SDS011;8731;50.364;8.958;2023-12-20T16:42:04;6.57;;;3.40;;
17228;SDS011;8731;50.364;8.958;2023-12-20T16:46:31;8.07;;;2.77;;
17228;SDS011;8731;50.364;8.958;2023-12-20T16:50:53;6.87;;;2.27;;
17228;SDS011;8731;50.364;8.958;2023-12-20T16:55:17;7.37;;;3.63;;
17228;SDS011;8731;50.364;8.958;2023-12-20T16:59:42;8.83;;;3.33;;
17228;SDS011;8731;50.364;8.958;2023-12-20T17:04:05;5.70;;;2.40;;
17228;SDS011;8731;50.364;8.958;2023-12-20T17:08:28;5.03;;;2.40;;
17228;SDS011;8731;50.364;8.958;2023-12-20T17:12:52;7.13;;;2.17;;
17228;SDS011;8731;50.364;8.958;2023-12-20T17:17:15;6.53;;;2.87;;
17228;SDS011;8731;50.364;8.958;2023-12-20T17:21:39;5.07;;;2.33;;
17228;SDS011;8731;50.364;8.958;2023-12-20T17:26:03;6.47;;;2.60;;
17228;SDS011;8731;50.364;8.958;2023-12-20T17:30:25;5.73;;;2.90;;
17228;SDS011;8731;50.364;8.958;2023-12-20T17:34:48;6.00;;;1.70;;
17228;SDS011;8731;50.364;8.958;2023-12-20T17:39:12;28.17;;;11.87;;
17228;SDS011;8731;50.364;8.958;2023-12-20T17:43:37;6.83;;;2.73;;
17228;SDS011;8731;50.364;8.958;2023-12-20T17:47:59;3.87;;;1.70;;
17228;SDS011;8731;50.364;8.958;2023-12-20T17:52:23;10.23;;;2.47;;
17228;SDS011;8731;50.364;8.958;2023-12-20T17:56:48;4.80;;;1.93;;
17228;SDS011;8731;50.364;8.958;2023-12-20T18:01:13;6.27;;;2.23;;
17228;SDS011;8731;50.364;8.958;2023-12-20T18:05:35;5.67;;;1.80;;
17228;SDS011;8731;50.364;8.958;2023-12-20T18:09:57;9.90;;;2.97;;
17228;SDS011;8731;50.364;8.958;2023-12-20T18:14:23;8.87;;;2.83;;
17228;SDS011;8731;50.364;8.958;2023-12-20T18:18:47;10.97;;;3.77;;
17228;SDS011;8731;50.364;8.958;2023-12-20T18:23:10;7.57;;;3.90;;
17228;SDS011;8731;50.364;8.958;2023-12-20T18:27:32;10.10;;;3.10;;
17228;SDS011;8731;50.364;8.958;2023-12-20T18:31:56;8.10;;;3.03;;
17228;SDS011;8731;50.364;8.958;2023-12-20T18:36:19;7.67;;;3.63;;
17228;SDS011;8731;50.364;8.958;2023-12-20T18:40:42;12.27;;;3.83;;
17228;SDS011;8731;50.364;8.958;2023-12-20T18:45:08;5.87;;;3.13;;
17228;SDS011;8731;50.364;8.958;2023-12-20T18:49:33;8.83;;;3.30;;
17228;SDS011;8731;50.364;8.958;2023-12-20T18:53:57;8.13;;;3.63;;
17228;SDS011;8731;50.364;8.958;2023-12-20T18:58:20;10.33;;;4.27;;
17228;SDS011;8731;50.364;8.958;2023-12-20T19:03:08;5.13;;;2.40;;
17228;SDS011;8731;50.364;8.958;2023-12-20T19:07:33;6.93;;;2.70;;
17228;SDS011;8731;50.364;8.958;2023-12-20T19:11:56;6.90;;;3.23;;
17228;SDS011;8731;50.364;8.958;2023-12-20T19:16:22;9.80;;;3.17;;
17228;SDS011;8731;50.364;8.958;2023-12-20T19:20:51;7.90;;;3.27;;
17228;SDS011;8731;50.364;8.958;2023-12-20T19:25:17;9.73;;;2.87;;
17228;SDS011;8731;50.364;8.958;2023-12-20T19:29:44;7.40;;;2.40;;
17228;SDS011;8731;50.364;8.958;2023-12-20T19:34:08;9.43;;;3.47;;
17228;SDS011;8731;50.364;8.958;2023-12-20T19:38:31;10.90;;;4.03;;
17228;SDS011;8731;50.364;8.958;2023-12-20T19:42:55;10.33;;;3.43;;
17228;SDS011;8731;50.364;8.958;2023-12-20T19:47:17;8.50;;;3.63;;
17228;SDS011;8731;50.364;8.958;2023-12-20T19:51:41;9.77;;;3.70;;
17228;SDS011;8731;50.364;8.958;2023-12-20T19:56:13;7.90;;;3.33;;
17228;SDS011;8731;50.364;8.958;2023-12-20T20:00:38;10.17;;;3.90;;
17228;SDS011;8731;50.364;8.958;2023-12-20T20:05:01;8.63;;;3.47;;
17228;SDS011;8731;50.364;8.958;2023-12-20T20:09:23;9.13;;;3.20;;
17228;SDS011;8731;50.364;8.958;2023-12-20T20:13:46;9.87;;;3.03;;
17228;SDS011;8731;50.364;8.958;2023-12-20T20:18:11;8.77;;;3.10;;
17228;SDS011;8731;50.364;8.958;2023-12-20T20:22:34;6.30;;;2.83;;
17228;SDS011;8731;50.364;8.958;2023-12-20T20:26:56;9.57;;;3.17;;
17228;SDS011;8731;50.364;8.958;2023-12-20T20:31:19;7.07;;;3.33;;
17228;SDS011;8731;50.364;8.958;2023-12-20T20:35:43;11.57;;;4.87;;
17228;SDS011;8731;50.364;8.958;2023-12-20T20:40:09;8.73;;;4.23;;
17228;SDS011;8731;50.364;8.958;2023-12-20T20:44:39;9.53;;;3.20;;
17228;SDS011;8731;50.364;8.958;2023-12-20T20:49:06;8.30;;;3.33;;
17228;SDS011;8731;50.364;8.958;2023-12-20T20:53:37;10.17;;;4.00;;
17228;SDS011;8731;50.364;8.958;2023-12-20T20:58:02;7.97;;;3.20;;
17228;SDS011;8731;50.364;8.958;2023-12-20T21:02:29;10.13;;;4.17;;
17228;SDS011;8731;50.364;8.958;2023-12-20T21:06:51;7.23;;;3.13;;
17228;SDS011;8731;50.364;8.958;2023-12-20T21:11:22;6.80;;;3.37;;
17228;SDS011;8731;50.364;8.958;2023-12-20T21:15:46;6.63;;;3.13;;
17228;SDS011;8731;50.364;8.958;2023-12-20T21:20:14;6.50;;;3.43;;
17228;SDS011;8731;50.364;8.958;2023-12-20T21:24:42;6.47;;;3.17;;
17228;SDS011;8731;50.364;8.958;2023-12-20T21:29:10;4.90;;;2.70;;
17228;SDS011;8731;50.364;8.958;2023-12-20T21:33:37;6.57;;;2.90;;
17228;SDS011;8731;50.364;8.958;2023-12-20T21:38:02;7.70;;;3.63;;
17228;SDS011;8731;50.364;8.958;2023-12-20T21:42:27;6.37;;;3.27;;
17228;SDS011;8731;50.364;8.958;2023-12-20T21:46:53;7.37;;;3.37;;
17228;SDS011;8731;50.364;8.958;2023-12-20T21:51:19;7.97;;;3.13;;
17228;SDS011;8731;50.364;8.958;2023-12-20T21:55:44;9.07;;;3.60;;
17228;SDS011;8731;50.364;8.958;2023-12-20T22:00:10;6.40;;;3.70;;
17228;SDS011;8731;50.364;8.958;2023-12-20T22:04:38;7.43;;;3.53;;
17228;SDS011;8731;50.364;8.958;2023-12-20T22:09:13;7.97;;;3.30;;
17228;SDS011;8731;50.364;8.958;2023-12-20T22:13:36;6.50;;;3.20;;
17228;SDS011;8731;50.364;8.958;2023-12-20T22:17:59;8.37;;;3.87;;
17228;SDS011;8731;50.364;8.958;2023-12-20T22:22:23;5.57;;;3.63;;
17228;SDS011;8731;50.364;8.958;2023-12-20T22:26:45;6.40;;;3.17;;
17228;SDS011;8731;50.364;8.958;2023-12-20T22:31:08;7.67;;;3.37;;
17228;SDS011;8731;50.364;8.958;2023-12-20T22:35:30;5.33;;;3.60;;
17228;SDS011;8731;50.364;8.958;2023-12-20T22:39:54;3.93;;;3.20;;
17228;SDS011;8731;50.364;8.958;2023-12-20T22:44:17;4.80;;;3.33;;
17228;SDS011;8731;50.364;8.958;2023-12-20T22:48:41;4.60;;;2.70;;
17228;SDS011;8731;50.364;8.958;2023-12-20T22:53:04;4.87;;;3.40;;
17228;SDS011;8731;50.364;8.958;2023-12-20T22:57:28;7.37;;;3.67;;
17228;SDS011;8731;50.364;8.958;2023-12-20T23:01:51;6.50;;;3.37;;
17228;SDS011;8731;50.364;8.958;2023-12-20T23:06:14;8.03;;;3.70;;
17228;SDS011;8731;50.364;8.958;2023-12-20T23:10:36;4.83;;;3.60;;
17228;SDS011;8731;50.364;8.958;2023-12-20T23:15:01;6.83;;;3.83;;
17228;SDS011;8731;50.364;8.958;2023-12-20T23:19:25;5.03;;;2.80;;
17228;SDS011;8731;50.364;8.958;2023-12-20T23:23:49;4.83;;;3.03;;
17228;SDS011;8731;50.364;8.958;2023-12-20T23:28:12;26.57;;;12.73;;
17228;SDS011;8731;50.364;8.958;2023-12-20T23:32:36;5.10;;;2.70;;
17228;SDS011;8731;50.364;8.958;2023-12-20T23:36:59;6.87;;;3.00;;
17228;SDS011;8731;50.364;8.958;2023-12-20T23:41:21;5.77;;;2.90;;
17228;SDS011;8731;50.364;8.958;2023-12-20T23:45:45;5.10;;;2.70;;
17228;SDS011;8731;50.364;8.958;2023-12-20T23:50:09;6.93;;;2.83;;
17228;SDS011;8731;50.364;8.958;2023-12-20T23:54:32;6.33;;;2.80;;
17228;SDS011;8731;50.364;8.958;2023-12-20T23:58:55;3.03;;;2.33;;
